Terminal Aerodrome Forecast
Issued by NWS

Home | Current Version | Previous Version | Text Only | Print | Product List | Glossary Off
Versions: 1 2 3 4 5 6 7 8 9 10 11 12 13 14 15 16 17 18 19 20

156
FTUS42 KMHX 230549
TAFISO
TAF
KISO 230549Z 2306/2406 03006KT P6SM VCSH OVC012
     FM230800 03009KT P6SM VCSH OVC008
     FM231700 06011KT P6SM VCSH OVC015
     FM240000 05008KT P6SM VCSH OVC007
      AMD LTD TO CLD VIS AND WIND=

USA.gov is the U.S. government's official web portal to all federal, state and local government web resources and services.